createdAt,value
2019-02-06T00:01:52.879Z,5.38
2019-02-06T00:04:21.774Z,5.21
2019-02-06T00:06:50.516Z,5.28
2019-02-06T00:09:19.240Z,5.26
2019-02-06T00:11:48.101Z,5.11
2019-02-06T00:14:16.820Z,4.98
2019-02-06T00:16:45.639Z,4.92
2019-02-06T00:19:14.446Z,4.97
2019-02-06T00:21:43.150Z,5.01
2019-02-06T00:24:11.879Z,4.93
2019-02-06T00:26:40.673Z,4.87
2019-02-06T00:29:09.403Z,4.88
2019-02-06T00:31:38.128Z,4.97
2019-02-06T00:34:07.680Z,5.00
2019-02-06T00:36:36.480Z,5.09
2019-02-06T00:39:07.783Z,5.11
2019-02-06T00:41:36.569Z,4.95
2019-02-06T00:44:05.289Z,5.14
2019-02-06T00:46:34.113Z,5.16
2019-02-06T00:49:02.920Z,5.24
2019-02-06T00:51:31.812Z,5.34
2019-02-06T00:54:00.543Z,5.45
2019-02-06T00:56:29.423Z,5.29
2019-02-06T00:58:58.147Z,5.19
2019-02-06T01:01:26.866Z,5.11
2019-02-06T01:03:55.694Z,5.02
2019-02-06T01:06:24.593Z,4.96
2019-02-06T01:08:53.312Z,4.90
2019-02-06T01:11:22.098Z,4.99
2019-02-06T01:13:50.827Z,4.98
2019-02-06T01:16:19.559Z,5.03
2019-02-06T01:18:48.331Z,5.28
2019-02-06T01:21:17.052Z,5.53
2019-02-06T01:23:45.944Z,5.47
2019-02-06T01:26:14.848Z,5.31
2019-02-06T01:28:43.575Z,5.18
2019-02-06T01:31:13.600Z,5.22
2019-02-06T01:33:42.479Z,5.08
2019-02-06T01:36:11.335Z,4.98
2019-02-06T01:38:40.055Z,4.84
2019-02-06T01:41:09.354Z,4.88
2019-02-06T01:43:38.083Z,5.00
2019-02-06T01:46:06.803Z,5.22
2019-02-06T01:48:35.674Z,5.42
2019-02-06T01:51:05.848Z,5.17
2019-02-06T01:53:34.583Z,4.84
2019-02-06T01:56:03.934Z,4.73
2019-02-06T01:58:32.658Z,4.60
2019-02-06T02:01:01.470Z,4.78
2019-02-06T02:03:30.437Z,5.11
2019-02-06T02:06:02.353Z,4.99
2019-02-06T02:08:31.725Z,4.95
2019-02-06T02:11:03.728Z,4.88
2019-02-06T02:13:32.447Z,4.83
2019-02-06T02:16:01.186Z,5.00
2019-02-06T02:18:29.949Z,5.18
2019-02-06T02:20:58.671Z,5.01
2019-02-06T02:23:27.485Z,4.86
2019-02-06T02:25:56.836Z,4.83
2019-02-06T02:28:25.582Z,4.84
2019-02-06T02:30:55.279Z,4.81
2019-02-06T02:33:24.414Z,4.79
2019-02-06T02:35:53.161Z,4.66
2019-02-06T02:38:21.908Z,4.55
2019-02-06T02:40:51.159Z,4.51
2019-02-06T02:43:19.899Z,4.46
2019-02-06T02:45:48.649Z,4.45
2019-02-06T02:48:17.503Z,4.48
2019-02-06T02:50:46.268Z,4.49
2019-02-06T02:53:14.986Z,4.69
2019-02-06T02:55:43.838Z,4.71
2019-02-06T02:58:12.557Z,4.55
2019-02-06T03:00:54.897Z,4.48
2019-02-06T03:03:28.338Z,4.48
2019-02-06T03:05:57.069Z,4.60
2019-02-06T03:08:26.414Z,4.61
2019-02-06T03:10:55.140Z,4.48
2019-02-06T03:13:23.866Z,4.34
2019-02-06T03:15:52.639Z,4.28
2019-02-06T03:18:21.357Z,4.25
2019-02-06T03:20:50.074Z,4.22
2019-02-06T03:23:18.923Z,4.33
2019-02-06T03:25:47.745Z,4.58
2019-02-06T03:28:16.462Z,4.49
2019-02-06T03:30:45.287Z,4.38
2019-02-06T03:33:14.077Z,4.29
2019-02-06T03:35:43.303Z,4.28
2019-02-06T03:38:12.185Z,4.32
2019-02-06T03:40:41.112Z,4.30
2019-02-06T03:43:09.836Z,4.24
2019-02-06T03:45:38.701Z,4.27
2019-02-06T03:48:07.454Z,4.34
2019-02-06T03:50:36.167Z,4.32
2019-02-06T03:53:04.948Z,4.28
2019-02-06T03:55:33.984Z,4.29
2019-02-06T03:58:02.782Z,4.32
2019-02-06T04:00:31.660Z,4.25
2019-02-06T04:03:00.384Z,4.19
2019-02-06T04:05:29.112Z,4.30
2019-02-06T04:07:57.885Z,4.28
2019-02-06T04:10:26.756Z,4.35
2019-02-06T04:13:01.218Z,4.29
2019-02-06T04:15:30.283Z,4.19
2019-02-06T04:17:58.995Z,4.14
2019-02-06T04:20:27.711Z,4.14
2019-02-06T04:23:01.243Z,4.38
2019-02-06T04:25:27.765Z,4.56
2019-02-06T04:27:56.460Z,4.46
2019-02-06T04:30:25.330Z,4.38
2019-02-06T04:32:54.308Z,4.45
2019-02-06T04:35:23.015Z,4.37
2019-02-06T04:37:51.806Z,4.38
2019-02-06T04:40:21.120Z,4.40
2019-02-06T04:42:50.274Z,4.38
2019-02-06T04:45:20.039Z,4.39
2019-02-06T04:47:48.862Z,4.54
2019-02-06T04:50:18.764Z,4.53
2019-02-06T04:52:47.848Z,4.61
2019-02-06T04:55:17.852Z,4.61
2019-02-06T04:57:46.950Z,4.62
2019-02-06T05:00:26.770Z,4.47
2019-02-06T05:02:55.494Z,4.48
2019-02-06T05:05:24.227Z,4.48
2019-02-06T05:07:53.109Z,4.24
2019-02-06T05:10:21.864Z,4.25
2019-02-06T05:12:50.587Z,4.22
2019-02-06T05:15:20.260Z,4.12
2019-02-06T05:17:49.004Z,4.08
2019-02-06T05:20:26.825Z,4.20
2019-02-06T05:23:00.118Z,4.29
2019-02-06T05:25:32.108Z,4.34
2019-02-06T05:28:04.086Z,4.27
2019-02-06T05:30:32.826Z,4.34
2019-02-06T05:33:01.551Z,4.44
2019-02-06T05:35:30.783Z,4.42
2019-02-06T05:38:00.106Z,4.36
2019-02-06T05:40:29.114Z,4.31
2019-02-06T05:42:57.998Z,4.29
2019-02-06T05:45:26.723Z,4.38
2019-02-06T05:47:55.452Z,4.37
2019-02-06T05:50:24.217Z,4.43
2019-02-06T05:52:52.940Z,4.56
2019-02-06T05:55:21.673Z,4.48
2019-02-06T05:57:50.480Z,4.46
2019-02-06T06:00:31.694Z,4.59
2019-02-06T06:03:00.668Z,4.46
2019-02-06T06:05:29.379Z,4.51
2019-02-06T06:07:58.109Z,4.55
2019-02-06T06:10:27.167Z,4.69
2019-02-06T06:12:55.892Z,4.65
2019-02-06T06:15:24.618Z,4.76
2019-02-06T06:17:53.711Z,4.62
2019-02-06T06:20:22.453Z,4.77
2019-02-06T06:22:51.173Z,4.70
2019-02-06T06:25:21.092Z,4.75
2019-02-06T06:27:50.249Z,4.79
2019-02-06T06:30:20.774Z,4.77
2019-02-06T06:32:49.623Z,4.85
2019-02-06T06:35:18.425Z,4.82
2019-02-06T06:37:57.540Z,4.84
2019-02-06T06:40:22.760Z,4.91
2019-02-06T06:42:51.785Z,4.95
2019-02-06T06:45:25.863Z,4.95
2019-02-06T06:47:54.729Z,4.99
2019-02-06T06:50:25.363Z,5.01
2019-02-06T06:52:54.086Z,5.05
2019-02-06T06:55:23.818Z,5.11
2019-02-06T06:57:52.511Z,5.16
2019-02-06T07:00:30.023Z,5.17
2019-02-06T07:02:59.145Z,5.23
2019-02-06T07:05:27.962Z,5.42
2019-02-06T07:08:08.834Z,5.96
2019-02-06T07:10:27.390Z,5.87
2019-02-06T07:12:56.109Z,5.91
2019-02-06T07:15:30.520Z,6.06
2019-02-06T07:17:59.237Z,6.00
2019-02-06T07:20:27.965Z,5.90
2019-02-06T07:22:56.764Z,6.03
2019-02-06T07:25:25.492Z,6.10
2019-02-06T07:27:54.316Z,6.09
2019-02-06T07:30:35.022Z,6.02
2019-02-06T07:33:03.750Z,6.00
2019-02-06T07:35:32.580Z,6.18
2019-02-06T07:38:02.058Z,6.02
2019-02-06T07:40:30.789Z,6.00
2019-02-06T07:42:59.542Z,6.20
2019-02-06T07:45:28.430Z,6.47
2019-02-06T07:47:57.182Z,6.41
2019-02-06T07:50:28.605Z,6.32
2019-02-06T07:52:57.958Z,6.37
2019-02-06T07:55:26.685Z,6.69
2019-02-06T07:57:55.515Z,6.76
2019-02-06T08:00:24.613Z,6.77
2019-02-06T08:02:54.636Z,6.85
2019-02-06T08:05:23.483Z,6.93
2019-02-06T08:07:52.244Z,7.08
2019-02-06T08:10:26.688Z,7.32
2019-02-06T08:12:55.552Z,7.32
2019-02-06T08:15:24.537Z,7.31
2019-02-06T08:17:53.269Z,7.32
2019-02-06T08:20:23.247Z,7.10
2019-02-06T08:22:53.029Z,7.00
2019-02-06T08:25:23.257Z,6.95
2019-02-06T08:27:52.087Z,6.71
2019-02-06T08:30:23.859Z,6.85
2019-02-06T08:32:52.684Z,6.78
2019-02-06T08:35:21.405Z,6.69
2019-02-06T08:37:51.390Z,6.59
2019-02-06T08:40:25.369Z,6.70
2019-02-06T08:42:54.189Z,6.55
2019-02-06T08:45:23.070Z,6.74
2019-02-06T08:47:52.101Z,6.85
2019-02-06T08:50:24.612Z,6.88
2019-02-06T08:52:53.700Z,7.01
2019-02-06T08:55:25.125Z,7.07
2019-02-06T08:57:53.943Z,6.93
2019-02-06T09:00:31.390Z,6.95
2019-02-06T09:03:00.625Z,6.87
2019-02-06T09:05:29.829Z,6.86
2019-02-06T09:07:58.635Z,6.82
2019-02-06T09:10:29.064Z,6.87
2019-02-06T09:12:58.398Z,6.73
2019-02-06T09:15:27.750Z,6.59
2019-02-06T09:17:56.661Z,6.56
2019-02-06T09:20:26.975Z,6.52
2019-02-06T09:22:56.048Z,6.48
2019-02-06T09:25:26.283Z,6.47
2019-02-06T09:27:55.103Z,6.56
2019-02-06T09:30:29.118Z,6.53
2019-02-06T09:32:58.045Z,6.51
2019-02-06T09:35:27.243Z,6.55
2019-02-06T09:37:56.031Z,6.52
2019-02-06T09:40:27.041Z,6.62
2019-02-06T09:42:55.867Z,6.64
2019-02-06T09:45:24.641Z,6.53
2019-02-06T09:47:53.373Z,6.48
2019-02-06T09:50:25.075Z,6.42
2019-02-06T09:52:54.147Z,6.47
2019-02-06T09:55:22.874Z,6.14
2019-02-06T09:57:51.605Z,5.80
2019-02-06T10:00:32.016Z,5.73
2019-02-06T10:03:01.423Z,5.68
2019-02-06T10:05:30.297Z,5.65
2019-02-06T10:07:59.514Z,5.64
2019-02-06T10:10:29.040Z,5.63
2019-02-06T10:12:57.775Z,5.57
2019-02-06T10:15:31.917Z,5.48
2019-02-06T10:18:01.120Z,5.38
2019-02-06T10:20:32.760Z,5.46
2019-02-06T10:23:01.717Z,5.45
2019-02-06T10:25:30.847Z,5.42
2019-02-06T10:27:59.570Z,5.40
2019-02-06T10:30:31.258Z,5.51
2019-02-06T10:33:00.568Z,5.59
2019-02-06T10:35:29.304Z,5.51
2019-02-06T10:37:58.293Z,5.61
2019-02-06T10:40:27.426Z,5.76
2019-02-06T10:42:56.157Z,5.79
2019-02-06T10:45:25.068Z,5.92
2019-02-06T10:47:54.375Z,5.77
2019-02-06T10:50:29.106Z,5.69
2019-02-06T10:52:58.068Z,5.85
2019-02-06T10:55:27.081Z,5.81
2019-02-06T10:57:55.914Z,5.85
2019-02-06T11:00:39.913Z,5.90
2019-02-06T11:03:08.640Z,6.09
2019-02-06T11:05:37.465Z,6.03
2019-02-06T11:08:06.671Z,6.10
2019-02-06T11:10:35.384Z,6.40
2019-02-06T11:13:04.911Z,6.59
2019-02-06T11:15:34.260Z,6.87
2019-02-06T11:18:02.986Z,6.92
2019-02-06T11:20:34.913Z,6.88
2019-02-06T11:23:03.893Z,6.93
2019-02-06T11:25:32.731Z,6.87
2019-02-06T11:28:01.468Z,6.81
2019-02-06T11:30:33.531Z,6.85
2019-02-06T11:33:02.349Z,6.74
2019-02-06T11:35:31.087Z,6.86
2019-02-06T11:37:59.975Z,6.73
2019-02-06T11:40:28.703Z,6.77
2019-02-06T11:42:57.528Z,6.77
2019-02-06T11:45:33.940Z,6.72
2019-02-06T11:48:02.778Z,6.71
2019-02-06T11:50:39.126Z,6.82
2019-02-06T11:53:09.571Z,6.83
2019-02-06T11:55:38.288Z,6.70
2019-02-06T11:58:08.087Z,6.81
2019-02-06T12:00:42.961Z,6.83
2019-02-06T12:03:11.758Z,6.86
2019-02-06T12:05:40.495Z,6.67
2019-02-06T12:08:12.287Z,6.73
2019-02-06T12:10:39.816Z,6.63
2019-02-06T12:13:09.133Z,6.58
2019-02-06T12:15:37.973Z,6.52
2019-02-06T12:18:07.743Z,6.64
2019-02-06T12:20:37.290Z,6.54
2019-02-06T12:23:06.380Z,6.65
2019-02-06T12:25:35.623Z,6.68
2019-02-06T12:28:05.760Z,6.65
2019-02-06T12:30:42.064Z,6.66
2019-02-06T12:33:10.792Z,6.63
2019-02-06T12:35:39.523Z,6.51
2019-02-06T12:38:08.640Z,6.43
2019-02-06T12:40:37.486Z,6.42
2019-02-06T12:43:10.531Z,6.39
2019-02-06T12:45:40.000Z,6.34
2019-02-06T12:48:08.978Z,6.29
2019-02-06T12:50:37.705Z,6.12
2019-02-06T12:53:07.082Z,6.05
2019-02-06T12:55:40.680Z,6.10
2019-02-06T12:58:10.129Z,6.14
2019-02-06T13:00:42.073Z,6.17
2019-02-06T13:03:10.825Z,6.23
2019-02-06T13:05:39.554Z,6.29
2019-02-06T13:08:08.583Z,6.37
2019-02-06T13:10:37.305Z,6.14
2019-02-06T13:13:06.128Z,6.05
2019-02-06T13:15:41.361Z,6.01
2019-02-06T13:18:10.084Z,6.02
2019-02-06T13:20:39.769Z,6.03
2019-02-06T13:23:08.739Z,6.05
2019-02-06T13:25:37.476Z,6.10
2019-02-06T13:28:07.447Z,6.09
2019-02-06T13:30:38.080Z,6.07
2019-02-06T13:33:11.447Z,6.31
2019-02-06T13:35:38.763Z,6.25
2019-02-06T13:38:07.640Z,6.20
2019-02-06T13:40:45.174Z,6.18
2019-02-06T13:43:07.126Z,6.30
2019-02-06T13:45:39.104Z,6.16
2019-02-06T13:48:07.939Z,6.03
2019-02-06T13:50:36.983Z,6.06
2019-02-06T13:53:05.984Z,6.16
2019-02-06T13:55:34.810Z,6.10
2019-02-06T13:58:03.532Z,6.12
2019-02-06T14:00:38.146Z,6.07
2019-02-06T14:03:07.526Z,6.20
2019-02-06T14:05:36.454Z,6.07
2019-02-06T14:08:10.833Z,6.04
2019-02-06T14:10:39.768Z,5.97
2019-02-06T14:13:08.502Z,5.91
2019-02-06T14:15:40.203Z,5.80
2019-02-06T14:18:09.038Z,5.81
2019-02-06T14:20:38.075Z,5.93
2019-02-06T14:23:14.488Z,5.80
2019-02-06T14:25:46.504Z,5.74
2019-02-06T14:28:20.887Z,5.81
2019-02-06T14:31:09.211Z,5.75
2019-02-06T14:33:41.126Z,5.66
2019-02-06T14:36:38.253Z,5.68
2019-02-06T14:39:20.098Z,5.68
2019-02-06T14:41:58.041Z,5.73
2019-02-06T14:44:41.715Z,5.90
2019-02-06T14:47:28.669Z,5.83
2019-02-06T14:50:04.538Z,5.89
2019-02-06T14:52:59.014Z,5.88
2019-02-06T14:55:47.209Z,5.98
2019-02-06T14:58:35.112Z,5.82
2019-02-06T15:01:12.963Z,5.82
2019-02-06T15:03:53.325Z,5.59
2019-02-06T15:06:39.470Z,5.52
2019-02-06T15:09:22.116Z,5.53
2019-02-06T15:12:00.868Z,5.65
2019-02-06T15:14:56.460Z,5.65
2019-02-06T15:17:47.676Z,5.54
2019-02-06T15:20:27.608Z,5.52
2019-02-06T15:22:59.782Z,5.42
2019-02-06T15:25:49.276Z,5.36
2019-02-06T15:28:46.713Z,5.26
2019-02-06T15:31:41.347Z,5.39
2019-02-06T15:34:31.419Z,5.32
2019-02-06T15:37:06.091Z,5.19
2019-02-06T15:39:55.637Z,5.16
2019-02-06T15:42:43.446Z,5.12
2019-02-06T15:45:21.016Z,5.32
2019-02-06T15:47:52.655Z,5.25
2019-02-06T15:50:46.709Z,5.08
2019-02-06T15:53:21.112Z,4.92
2019-02-06T15:55:55.793Z,4.86
2019-02-06T15:58:36.400Z,4.88
2019-02-06T16:01:16.825Z,4.98
2019-02-06T16:04:19.982Z,5.05
2019-02-06T16:07:14.208Z,5.08
2019-02-06T16:10:14.184Z,5.23
2019-02-06T16:13:10.299Z,5.14
2019-02-06T16:15:47.889Z,4.90
2019-02-06T16:18:25.323Z,4.84
2019-02-06T16:21:13.477Z,4.82
2019-02-06T16:23:45.259Z,4.91
2019-02-06T16:26:22.712Z,4.85
2019-02-06T16:29:14.135Z,4.88
2019-02-06T16:31:54.847Z,4.88
2019-02-06T16:34:35.284Z,4.87
2019-02-06T16:37:22.150Z,4.92
2019-02-06T16:39:56.837Z,4.96
2019-02-06T16:42:34.167Z,4.96
2019-02-06T16:45:17.630Z,4.95
2019-02-06T16:48:07.115Z,4.99
2019-02-06T16:50:38.997Z,4.99
2019-02-06T16:53:28.561Z,5.09
2019-02-06T16:56:06.748Z,5.11
2019-02-06T16:59:07.187Z,5.07
2019-02-06T17:01:42.270Z,4.97
2019-02-06T17:04:48.331Z,5.04
2019-02-06T17:07:25.868Z,5.00
2019-02-06T17:10:06.775Z,5.01
2019-02-06T17:12:47.784Z,4.98
2019-02-06T17:15:37.377Z,5.09
2019-02-06T17:18:15.170Z,5.10
2019-02-06T17:21:08.554Z,5.08
2019-02-06T17:24:04.461Z,5.11
2019-02-06T17:26:38.828Z,5.13
2019-02-06T17:29:16.548Z,5.10
2019-02-06T17:31:53.048Z,5.13
2019-02-06T17:34:39.528Z,5.10
2019-02-06T17:37:33.854Z,5.08
2019-02-06T17:40:17.846Z,4.99
2019-02-06T17:43:15.164Z,4.92
2019-02-06T17:45:52.745Z,4.88
2019-02-06T17:48:27.043Z,4.96
2019-02-06T17:51:24.349Z,5.02
2019-02-06T17:54:04.947Z,4.98
2019-02-06T17:56:34.118Z,5.06
2019-02-06T17:59:02.849Z,5.10
2019-02-06T18:01:32.055Z,5.14
2019-02-06T18:04:01.027Z,5.12
2019-02-06T18:06:29.753Z,4.93
2019-02-06T18:08:58.485Z,4.91
2019-02-06T18:11:27.630Z,5.08
2019-02-06T18:13:56.357Z,5.10
2019-02-06T18:16:25.301Z,4.90
2019-02-06T18:18:54.189Z,4.92
2019-02-06T18:21:22.926Z,4.87
2019-02-06T18:23:51.657Z,4.84
2019-02-06T18:26:20.546Z,5.04
2019-02-06T18:28:49.548Z,5.05
2019-02-06T18:31:18.418Z,4.98
2019-02-06T18:33:47.185Z,5.05
2019-02-06T18:36:16.019Z,5.08
2019-02-06T18:38:46.896Z,5.12
2019-02-06T18:41:15.850Z,5.23
2019-02-06T18:43:44.576Z,5.12
2019-02-06T18:46:13.480Z,5.14
2019-02-06T18:48:42.597Z,5.19
2019-02-06T18:51:11.322Z,5.17
2019-02-06T18:53:40.149Z,5.03
2019-02-06T18:56:09.127Z,5.01
2019-02-06T18:58:37.972Z,5.18
2019-02-06T19:01:09.821Z,5.23
2019-02-06T19:03:42.093Z,5.16
2019-02-06T19:06:11.253Z,5.13
2019-02-06T19:08:40.296Z,5.05
2019-02-06T19:11:09.244Z,5.11
2019-02-06T19:13:38.003Z,5.09
2019-02-06T19:16:06.829Z,5.09
2019-02-06T19:18:37.292Z,5.09
2019-02-06T19:21:06.077Z,5.12
2019-02-06T19:23:35.282Z,5.07
2019-02-06T19:26:04.121Z,4.99
2019-02-06T19:28:32.865Z,4.98
2019-02-06T19:31:01.593Z,5.11
2019-02-06T19:33:30.346Z,5.11
2019-02-06T19:35:59.077Z,5.07
2019-02-06T19:38:27.811Z,4.91
2019-02-06T19:40:56.729Z,4.74
2019-02-06T19:43:25.457Z,4.67
2019-02-06T19:45:54.184Z,4.74
2019-02-06T19:48:23.490Z,4.74
2019-02-06T19:50:52.221Z,4.71
2019-02-06T19:53:20.954Z,4.80
2019-02-06T19:55:49.836Z,4.77
2019-02-06T19:58:18.572Z,4.73
2019-02-06T20:00:47.684Z,4.70
2019-02-06T20:03:16.567Z,4.69
2019-02-06T20:05:45.296Z,4.83
2019-02-06T20:08:14.533Z,5.04
2019-02-06T20:10:46.312Z,4.87
2019-02-06T20:13:15.085Z,4.80
2019-02-06T20:15:43.967Z,4.81
2019-02-06T20:18:13.849Z,4.91
2019-02-06T20:20:42.585Z,4.90
2019-02-06T20:23:11.409Z,4.87
2019-02-06T20:25:40.286Z,4.87
2019-02-06T20:28:09.021Z,4.87
2019-02-06T20:30:37.747Z,4.91
2019-02-06T20:33:06.544Z,4.97
2019-02-06T20:35:35.764Z,5.00
2019-02-06T20:38:04.591Z,5.06
2019-02-06T20:40:35.751Z,5.10
2019-02-06T20:43:04.876Z,5.16
2019-02-06T20:45:33.603Z,5.27
2019-02-06T20:48:02.479Z,5.23
2019-02-06T20:50:33.653Z,5.19
2019-02-06T20:53:02.758Z,5.22
2019-02-06T20:55:31.976Z,5.39
2019-02-06T20:58:00.713Z,5.33
2019-02-06T21:00:42.685Z,5.20
2019-02-06T21:03:11.414Z,5.10
2019-02-06T21:05:40.713Z,5.08
2019-02-06T21:08:09.613Z,5.05
2019-02-06T21:10:38.435Z,5.03
2019-02-06T21:13:07.356Z,5.00
2019-02-06T21:15:36.267Z,5.01
2019-02-06T21:18:05.736Z,5.09
2019-02-06T21:20:34.462Z,4.98
2019-02-06T21:23:03.847Z,4.97
2019-02-06T21:25:32.579Z,4.84
2019-02-06T21:28:01.306Z,4.82
2019-02-06T21:30:38.522Z,4.90
2019-02-06T21:33:07.246Z,4.88
2019-02-06T21:35:35.972Z,4.92
2019-02-06T21:38:05.096Z,4.99
2019-02-06T21:40:37.873Z,5.03
2019-02-06T21:43:07.716Z,5.06
2019-02-06T21:45:36.817Z,5.20
2019-02-06T21:48:06.539Z,5.19
2019-02-06T21:50:35.644Z,5.14
2019-02-06T21:53:05.074Z,4.99
2019-02-06T21:55:33.805Z,4.83
2019-02-06T21:58:02.633Z,4.81
2019-02-06T22:00:40.364Z,4.92
2019-02-06T22:03:10.800Z,4.95
2019-02-06T22:05:39.819Z,4.84
2019-02-06T22:08:09.170Z,4.83
2019-02-06T22:10:37.899Z,4.80
2019-02-06T22:13:06.637Z,4.79
2019-02-06T22:15:35.536Z,4.85
2019-02-06T22:18:04.266Z,4.77
2019-02-06T22:20:32.999Z,4.65
2019-02-06T22:23:01.801Z,4.53
2019-02-06T22:25:30.517Z,4.50
2019-02-06T22:27:59.340Z,4.42
2019-02-06T22:30:30.783Z,4.40
2019-02-06T22:32:59.701Z,4.41
2019-02-06T22:35:28.539Z,4.55
2019-02-06T22:37:58.094Z,4.67
2019-02-06T22:40:27.243Z,4.61
2019-02-06T22:42:56.034Z,4.68
2019-02-06T22:45:26.798Z,4.70
2019-02-06T22:47:55.627Z,4.67
2019-02-06T22:50:26.656Z,4.77
2019-02-06T22:52:55.657Z,4.82
2019-02-06T22:55:24.386Z,4.80
2019-02-06T22:57:53.219Z,4.87
2019-02-06T23:00:49.386Z,4.69
2019-02-06T23:03:24.004Z,4.60
2019-02-06T23:05:52.735Z,4.38
2019-02-06T23:08:21.546Z,4.32
2019-02-06T23:10:50.272Z,4.23
2019-02-06T23:13:19.376Z,4.14
2019-02-06T23:15:48.255Z,4.02
2019-02-06T23:18:17.490Z,3.89
2019-02-06T23:20:46.313Z,3.81
2019-02-06T23:23:15.509Z,3.67
2019-02-06T23:25:44.248Z,3.60
2019-02-06T23:28:13.264Z,3.69
2019-02-06T23:30:42.157Z,3.68
2019-02-06T23:33:10.892Z,3.84
2019-02-06T23:35:41.069Z,3.91
2019-02-06T23:38:09.959Z,3.97
2019-02-06T23:40:38.696Z,3.97
2019-02-06T23:43:07.705Z,4.08
2019-02-06T23:45:36.549Z,4.15
2019-02-06T23:48:05.389Z,4.23
2019-02-06T23:50:34.121Z,4.26
2019-02-06T23:53:02.980Z,4.34
2019-02-06T23:55:31.722Z,4.44
2019-02-06T23:58:00.733Z,4.55
